sensor_id;sensor_type;location;lat;lon;timestamp;temperature;humidity
13585;DHT22;6863;48.402;9.994;2022-12-18T00:02:16;-5.30;99.90
13585;DHT22;6863;48.402;9.994;2022-12-18T00:04:41;-5.30;99.90
13585;DHT22;6863;48.402;9.994;2022-12-18T00:07:07;-5.40;99.90
13585;DHT22;6863;48.402;9.994;2022-12-18T00:09:32;-5.30;99.90
13585;DHT22;6863;48.402;9.994;2022-12-18T00:11:58;-5.30;99.90
13585;DHT22;6863;48.402;9.994;2022-12-18T00:14:23;-5.30;99.90
13585;DHT22;6863;48.402;9.994;2022-12-18T00:16:49;-5.30;99.90
13585;DHT22;6863;48.402;9.994;2022-12-18T00:19:16;-5.30;99.90
13585;DHT22;6863;48.402;9.994;2022-12-18T00:21:42;-5.30;99.90
13585;DHT22;6863;48.402;9.994;2022-12-18T00:24:09;-5.30;99.90
13585;DHT22;6863;48.402;9.994;2022-12-18T00:26:37;-5.30;99.90
13585;DHT22;6863;48.402;9.994;2022-12-18T00:29:06;-5.30;99.90
13585;DHT22;6863;48.402;9.994;2022-12-18T00:31:32;-5.30;99.90
13585;DHT22;6863;48.402;9.994;2022-12-18T00:33:58;-5.30;99.90
13585;DHT22;6863;48.402;9.994;2022-12-18T00:36:30;-5.30;99.90
13585;DHT22;6863;48.402;9.994;2022-12-18T00:38:58;-5.40;99.90
13585;DHT22;6863;48.402;9.994;2022-12-18T00:41:24;-5.30;99.90
13585;DHT22;6863;48.402;9.994;2022-12-18T00:44:11;-5.40;99.90
13585;DHT22;6863;48.402;9.994;2022-12-18T00:46:37;-5.30;99.90
13585;DHT22;6863;48.402;9.994;2022-12-18T00:49:03;-5.30;99.90
13585;DHT22;6863;48.402;9.994;2022-12-18T00:51:29;-5.30;99.90
13585;DHT22;6863;48.402;9.994;2022-12-18T00:53:55;-5.30;99.90
13585;DHT22;6863;48.402;9.994;2022-12-18T00:56:20;-5.30;99.90
13585;DHT22;6863;48.402;9.994;2022-12-18T00:58:49;-5.30;99.90
13585;DHT22;6863;48.402;9.994;2022-12-18T01:01:15;-5.30;99.90
13585;DHT22;6863;48.402;9.994;2022-12-18T01:03:40;-5.30;99.90
13585;DHT22;6863;48.402;9.994;2022-12-18T01:06:10;-5.30;99.90
13585;DHT22;6863;48.402;9.994;2022-12-18T01:08:37;-5.30;99.90
13585;DHT22;6863;48.402;9.994;2022-12-18T01:11:14;-5.30;99.90
13585;DHT22;6863;48.402;9.994;2022-12-18T01:13:40;-5.30;99.90
13585;DHT22;6863;48.402;9.994;2022-12-18T01:16:06;-5.30;99.90
13585;DHT22;6863;48.402;9.994;2022-12-18T01:18:32;-5.30;99.90
13585;DHT22;6863;48.402;9.994;2022-12-18T01:20:57;-5.20;99.90
13585;DHT22;6863;48.402;9.994;2022-12-18T01:23:23;-5.20;99.90
13585;DHT22;6863;48.402;9.994;2022-12-18T01:25:51;-5.20;99.90
13585;DHT22;6863;48.402;9.994;2022-12-18T01:28:17;-5.20;99.90
13585;DHT22;6863;48.402;9.994;2022-12-18T01:30:42;-5.20;99.90
13585;DHT22;6863;48.402;9.994;2022-12-18T01:33:08;-5.20;99.90
13585;DHT22;6863;48.402;9.994;2022-12-18T01:35:33;-5.20;99.90
13585;DHT22;6863;48.402;9.994;2022-12-18T01:38:04;-5.20;99.90
13585;DHT22;6863;48.402;9.994;2022-12-18T01:40:30;-5.30;99.90
13585;DHT22;6863;48.402;9.994;2022-12-18T01:42:56;-5.30;99.90
13585;DHT22;6863;48.402;9.994;2022-12-18T01:45:27;-5.30;99.90
13585;DHT22;6863;48.402;9.994;2022-12-18T01:47:59;-5.40;99.90
13585;DHT22;6863;48.402;9.994;2022-12-18T01:50:34;-5.40;99.90
13585;DHT22;6863;48.402;9.994;2022-12-18T01:55:38;-5.40;99.90
13585;DHT22;6863;48.402;9.994;2022-12-18T01:58:04;-5.40;99.90
13585;DHT22;6863;48.402;9.994;2022-12-18T02:00:30;-5.40;99.90
13585;DHT22;6863;48.402;9.994;2022-12-18T02:02:56;-5.40;99.90
13585;DHT22;6863;48.402;9.994;2022-12-18T02:08:26;-5.40;99.90
13585;DHT22;6863;48.402;9.994;2022-12-18T02:11:13;-5.40;99.90
13585;DHT22;6863;48.402;9.994;2022-12-18T02:22:07;-5.40;99.90
13585;DHT22;6863;48.402;9.994;2022-12-18T02:24:41;-5.30;99.90
13585;DHT22;6863;48.402;9.994;2022-12-18T02:27:10;-5.40;99.90
13585;DHT22;6863;48.402;9.994;2022-12-18T02:29:55;-5.40;99.90
13585;DHT22;6863;48.402;9.994;2022-12-18T02:32:32;-5.40;99.90
13585;DHT22;6863;48.402;9.994;2022-12-18T02:35:01;-5.50;99.90
13585;DHT22;6863;48.402;9.994;2022-12-18T02:37:28;-5.50;99.90
13585;DHT22;6863;48.402;9.994;2022-12-18T02:39:56;-5.50;99.90
13585;DHT22;6863;48.402;9.994;2022-12-18T02:42:24;-5.40;99.90
13585;DHT22;6863;48.402;9.994;2022-12-18T02:44:51;-5.40;99.90
13585;DHT22;6863;48.402;9.994;2022-12-18T02:47:19;-5.40;99.90
13585;DHT22;6863;48.402;9.994;2022-12-18T02:56:12;-5.40;99.90
13585;DHT22;6863;48.402;9.994;2022-12-18T02:58:47;-5.30;99.90
13585;DHT22;6863;48.402;9.994;2022-12-18T03:02:02;-5.30;99.90
13585;DHT22;6863;48.402;9.994;2022-12-18T03:06:49;-5.30;99.90
13585;DHT22;6863;48.402;9.994;2022-12-18T03:09:23;-5.30;99.90
13585;DHT22;6863;48.402;9.994;2022-12-18T03:11:55;-5.20;99.90
13585;DHT22;6863;48.402;9.994;2022-12-18T03:14:42;-5.30;99.90
13585;DHT22;6863;48.402;9.994;2022-12-18T03:17:11;-5.30;99.90
13585;DHT22;6863;48.402;9.994;2022-12-18T03:19:38;-5.30;99.90
13585;DHT22;6863;48.402;9.994;2022-12-18T03:22:06;-5.30;99.90
13585;DHT22;6863;48.402;9.994;2022-12-18T03:24:33;-5.30;99.90
13585;DHT22;6863;48.402;9.994;2022-12-18T03:27:10;-5.30;99.90
13585;DHT22;6863;48.402;9.994;2022-12-18T03:29:46;-5.30;99.90
13585;DHT22;6863;48.402;9.994;2022-12-18T03:32:29;-5.20;99.90
13585;DHT22;6863;48.402;9.994;2022-12-18T03:35:00;-5.30;99.90
13585;DHT22;6863;48.402;9.994;2022-12-18T03:37:27;-5.30;99.90
13585;DHT22;6863;48.402;9.994;2022-12-18T03:39:56;-5.30;99.90
13585;DHT22;6863;48.402;9.994;2022-12-18T03:42:28;-5.30;99.90
13585;DHT22;6863;48.402;9.994;2022-12-18T03:50:29;-5.40;99.90
13585;DHT22;6863;48.402;9.994;2022-12-18T03:53:08;-5.40;99.90
13585;DHT22;6863;48.402;9.994;2022-12-18T03:55:37;-5.40;99.90
13585;DHT22;6863;48.402;9.994;2022-12-18T03:58:04;-5.50;99.90
13585;DHT22;6863;48.402;9.994;2022-12-18T04:00:31;-5.50;99.90
13585;DHT22;6863;48.402;9.994;2022-12-18T04:03:00;-5.50;99.90
13585;DHT22;6863;48.402;9.994;2022-12-18T04:05:27;-5.60;99.90
13585;DHT22;6863;48.402;9.994;2022-12-18T04:07:54;-5.60;99.90
13585;DHT22;6863;48.402;9.994;2022-12-18T04:10:22;-5.60;99.90
13585;DHT22;6863;48.402;9.994;2022-12-18T04:12:47;-5.60;99.90
13585;DHT22;6863;48.402;9.994;2022-12-18T04:15:13;-5.70;99.90
13585;DHT22;6863;48.402;9.994;2022-12-18T04:17:46;-5.70;99.90
13585;DHT22;6863;48.402;9.994;2022-12-18T04:20:12;-5.70;99.90
13585;DHT22;6863;48.402;9.994;2022-12-18T04:22:38;-5.80;99.90
13585;DHT22;6863;48.402;9.994;2022-12-18T04:25:04;-5.80;99.90
13585;DHT22;6863;48.402;9.994;2022-12-18T04:27:29;-5.90;99.90
13585;DHT22;6863;48.402;9.994;2022-12-18T04:29:55;-5.90;99.90
13585;DHT22;6863;48.402;9.994;2022-12-18T04:32:20;-5.90;99.90
13585;DHT22;6863;48.402;9.994;2022-12-18T04:34:46;-5.90;99.90
13585;DHT22;6863;48.402;9.994;2022-12-18T04:37:12;-5.80;99.90
13585;DHT22;6863;48.402;9.994;2022-12-18T04:39:37;-5.90;99.90
13585;DHT22;6863;48.402;9.994;2022-12-18T04:42:03;-5.90;99.90
13585;DHT22;6863;48.402;9.994;2022-12-18T04:44:28;-5.90;99.90
13585;DHT22;6863;48.402;9.994;2022-12-18T04:46:54;-5.90;99.90
13585;DHT22;6863;48.402;9.994;2022-12-18T04:49:19;-5.90;99.90
13585;DHT22;6863;48.402;9.994;2022-12-18T04:51:45;-5.90;99.90
13585;DHT22;6863;48.402;9.994;2022-12-18T04:54:10;-5.80;99.90
13585;DHT22;6863;48.402;9.994;2022-12-18T04:56:36;-5.80;99.90
13585;DHT22;6863;48.402;9.994;2022-12-18T04:59:02;-5.80;99.90
13585;DHT22;6863;48.402;9.994;2022-12-18T05:01:27;-5.80;99.90
13585;DHT22;6863;48.402;9.994;2022-12-18T05:03:53;-5.80;99.90
13585;DHT22;6863;48.402;9.994;2022-12-18T05:06:18;-5.80;99.90
13585;DHT22;6863;48.402;9.994;2022-12-18T05:08:44;-5.80;99.90
13585;DHT22;6863;48.402;9.994;2022-12-18T05:11:11;-5.80;99.90
13585;DHT22;6863;48.402;9.994;2022-12-18T05:13:39;-5.80;99.90
13585;DHT22;6863;48.402;9.994;2022-12-18T05:16:05;-5.70;99.90
13585;DHT22;6863;48.402;9.994;2022-12-18T05:18:31;-5.70;99.90
13585;DHT22;6863;48.402;9.994;2022-12-18T05:20:57;-5.80;99.90
13585;DHT22;6863;48.402;9.994;2022-12-18T05:23:24;-5.80;99.90
13585;DHT22;6863;48.402;9.994;2022-12-18T05:25:58;-5.80;99.90
13585;DHT22;6863;48.402;9.994;2022-12-18T05:28:25;-5.70;99.90
13585;DHT22;6863;48.402;9.994;2022-12-18T05:30:55;-5.70;99.90
13585;DHT22;6863;48.402;9.994;2022-12-18T05:33:22;-5.70;99.90
13585;DHT22;6863;48.402;9.994;2022-12-18T05:35:51;-5.70;99.90
13585;DHT22;6863;48.402;9.994;2022-12-18T05:38:18;-5.70;99.90
13585;DHT22;6863;48.402;9.994;2022-12-18T05:40:44;-5.70;99.90
13585;DHT22;6863;48.402;9.994;2022-12-18T05:43:10;-5.70;99.90
13585;DHT22;6863;48.402;9.994;2022-12-18T05:45:39;-5.70;99.90
13585;DHT22;6863;48.402;9.994;2022-12-18T05:48:05;-5.60;99.90
13585;DHT22;6863;48.402;9.994;2022-12-18T05:50:36;-5.70;99.90
13585;DHT22;6863;48.402;9.994;2022-12-18T05:53:03;-5.60;99.90
13585;DHT22;6863;48.402;9.994;2022-12-18T05:55:32;-5.70;99.90
13585;DHT22;6863;48.402;9.994;2022-12-18T05:57:58;-5.80;99.90
13585;DHT22;6863;48.402;9.994;2022-12-18T06:00:25;-5.70;99.90
13585;DHT22;6863;48.402;9.994;2022-12-18T06:02:51;-5.70;99.90
13585;DHT22;6863;48.402;9.994;2022-12-18T06:05:16;-5.70;99.90
13585;DHT22;6863;48.402;9.994;2022-12-18T06:07:42;-5.80;99.90
13585;DHT22;6863;48.402;9.994;2022-12-18T06:10:07;-5.80;99.90
13585;DHT22;6863;48.402;9.994;2022-12-18T06:12:33;-5.80;99.90
13585;DHT22;6863;48.402;9.994;2022-12-18T06:14:59;-5.70;99.90
13585;DHT22;6863;48.402;9.994;2022-12-18T06:17:29;-5.70;99.90
13585;DHT22;6863;48.402;9.994;2022-12-18T06:19:55;-5.80;99.90
13585;DHT22;6863;48.402;9.994;2022-12-18T06:22:21;-5.70;99.90
13585;DHT22;6863;48.402;9.994;2022-12-18T06:24:46;-5.70;99.90
13585;DHT22;6863;48.402;9.994;2022-12-18T06:27:12;-5.70;99.90
13585;DHT22;6863;48.402;9.994;2022-12-18T06:29:38;-5.70;99.90
13585;DHT22;6863;48.402;9.994;2022-12-18T06:32:03;-5.70;99.90
13585;DHT22;6863;48.402;9.994;2022-12-18T06:34:29;-5.70;99.90
13585;DHT22;6863;48.402;9.994;2022-12-18T06:36:58;-5.60;99.90
13585;DHT22;6863;48.402;9.994;2022-12-18T06:39:24;-5.60;99.90
13585;DHT22;6863;48.402;9.994;2022-12-18T06:41:50;-5.60;99.90
13585;DHT22;6863;48.402;9.994;2022-12-18T06:44:15;-5.60;99.90
13585;DHT22;6863;48.402;9.994;2022-12-18T06:46:41;-5.60;99.90
13585;DHT22;6863;48.402;9.994;2022-12-18T06:49:07;-5.60;99.90
13585;DHT22;6863;48.402;9.994;2022-12-18T06:51:34;-5.60;99.90
13585;DHT22;6863;48.402;9.994;2022-12-18T06:54:00;-5.60;99.90
13585;DHT22;6863;48.402;9.994;2022-12-18T06:56:25;-5.60;99.90
13585;DHT22;6863;48.402;9.994;2022-12-18T06:58:51;-5.60;99.90
13585;DHT22;6863;48.402;9.994;2022-12-18T07:01:17;-5.50;99.90
13585;DHT22;6863;48.402;9.994;2022-12-18T07:03:42;-5.50;99.90
13585;DHT22;6863;48.402;9.994;2022-12-18T07:06:19;-5.50;99.90
13585;DHT22;6863;48.402;9.994;2022-12-18T07:08:45;-5.40;99.90
13585;DHT22;6863;48.402;9.994;2022-12-18T07:11:11;-5.40;99.90
13585;DHT22;6863;48.402;9.994;2022-12-18T07:13:37;-5.40;99.90
13585;DHT22;6863;48.402;9.994;2022-12-18T07:16:14;-5.40;99.90
13585;DHT22;6863;48.402;9.994;2022-12-18T07:18:40;-5.40;99.90
13585;DHT22;6863;48.402;9.994;2022-12-18T07:21:08;-5.30;99.90
13585;DHT22;6863;48.402;9.994;2022-12-18T07:23:34;-5.30;99.90
13585;DHT22;6863;48.402;9.994;2022-12-18T07:26:05;-5.20;99.90
13585;DHT22;6863;48.402;9.994;2022-12-18T07:28:32;-5.20;99.90
13585;DHT22;6863;48.402;9.994;2022-12-18T07:31:02;-5.20;99.90
13585;DHT22;6863;48.402;9.994;2022-12-18T07:33:28;-5.10;99.90
13585;DHT22;6863;48.402;9.994;2022-12-18T07:35:53;-5.10;99.90
13585;DHT22;6863;48.402;9.994;2022-12-18T07:38:19;-5.10;99.90
13585;DHT22;6863;48.402;9.994;2022-12-18T07:40:44;-5.00;99.90
13585;DHT22;6863;48.402;9.994;2022-12-18T07:43:10;-5.00;99.90
13585;DHT22;6863;48.402;9.994;2022-12-18T07:45:35;-5.00;99.90
13585;DHT22;6863;48.402;9.994;2022-12-18T07:48:01;-4.90;99.90
13585;DHT22;6863;48.402;9.994;2022-12-18T07:50:27;-4.90;99.90
13585;DHT22;6863;48.402;9.994;2022-12-18T07:52:52;-4.80;99.90
13585;DHT22;6863;48.402;9.994;2022-12-18T07:55:18;-4.70;99.90
13585;DHT22;6863;48.402;9.994;2022-12-18T07:57:43;-4.70;99.90
13585;DHT22;6863;48.402;9.994;2022-12-18T08:00:10;-4.70;99.90
13585;DHT22;6863;48.402;9.994;2022-12-18T08:02:35;-4.60;99.90
13585;DHT22;6863;48.402;9.994;2022-12-18T08:05:01;-4.70;99.90
13585;DHT22;6863;48.402;9.994;2022-12-18T08:07:26;-4.60;99.90
13585;DHT22;6863;48.402;9.994;2022-12-18T08:09:52;-4.60;99.90
13585;DHT22;6863;48.402;9.994;2022-12-18T08:12:17;-4.60;99.90
13585;DHT22;6863;48.402;9.994;2022-12-18T08:14:43;-4.50;99.90
13585;DHT22;6863;48.402;9.994;2022-12-18T08:17:09;-4.50;99.90
13585;DHT22;6863;48.402;9.994;2022-12-18T08:19:34;-4.50;99.90
13585;DHT22;6863;48.402;9.994;2022-12-18T08:22:00;-4.40;99.90
13585;DHT22;6863;48.402;9.994;2022-12-18T08:24:25;-4.40;99.90
13585;DHT22;6863;48.402;9.994;2022-12-18T08:26:51;-4.40;99.90
13585;DHT22;6863;48.402;9.994;2022-12-18T08:29:17;-4.30;99.90
13585;DHT22;6863;48.402;9.994;2022-12-18T08:31:42;-4.20;99.90
13585;DHT22;6863;48.402;9.994;2022-12-18T08:34:08;-4.20;99.90
13585;DHT22;6863;48.402;9.994;2022-12-18T08:36:33;-4.10;99.90
13585;DHT22;6863;48.402;9.994;2022-12-18T08:38:59;-4.10;99.90
13585;DHT22;6863;48.402;9.994;2022-12-18T08:41:25;-4.00;99.90
13585;DHT22;6863;48.402;9.994;2022-12-18T08:43:50;-4.00;99.90
13585;DHT22;6863;48.402;9.994;2022-12-18T08:46:37;-3.90;99.90
13585;DHT22;6863;48.402;9.994;2022-12-18T08:49:03;-3.80;99.90
13585;DHT22;6863;48.402;9.994;2022-12-18T08:51:29;-3.70;99.90
13585;DHT22;6863;48.402;9.994;2022-12-18T08:53:55;-3.80;99.90
13585;DHT22;6863;48.402;9.994;2022-12-18T08:56:20;-3.70;99.90
13585;DHT22;6863;48.402;9.994;2022-12-18T08:58:46;-3.70;99.90
13585;DHT22;6863;48.402;9.994;2022-12-18T09:01:12;-3.60;99.90
13585;DHT22;6863;48.402;9.994;2022-12-18T09:03:39;-3.60;99.90
13585;DHT22;6863;48.402;9.994;2022-12-18T09:06:05;-3.60;99.90
13585;DHT22;6863;48.402;9.994;2022-12-18T09:08:31;-3.50;99.90
13585;DHT22;6863;48.402;9.994;2022-12-18T09:10:59;-3.50;99.90
13585;DHT22;6863;48.402;9.994;2022-12-18T09:13:25;-3.50;99.90
13585;DHT22;6863;48.402;9.994;2022-12-18T09:15:52;-3.50;99.90
13585;DHT22;6863;48.402;9.994;2022-12-18T09:18:20;-3.40;99.90
13585;DHT22;6863;48.402;9.994;2022-12-18T09:20:46;-3.30;99.90
13585;DHT22;6863;48.402;9.994;2022-12-18T09:23:13;-3.40;99.90
13585;DHT22;6863;48.402;9.994;2022-12-18T09:25:39;-3.30;99.90
13585;DHT22;6863;48.402;9.994;2022-12-18T09:28:13;-3.20;99.90
13585;DHT22;6863;48.402;9.994;2022-12-18T09:30:46;-3.10;99.90
13585;DHT22;6863;48.402;9.994;2022-12-18T09:33:12;-3.30;99.90
13585;DHT22;6863;48.402;9.994;2022-12-18T09:35:39;-3.40;99.90
13585;DHT22;6863;48.402;9.994;2022-12-18T09:38:06;-3.40;99.90
13585;DHT22;6863;48.402;9.994;2022-12-18T09:40:53;-3.40;99.90
13585;DHT22;6863;48.402;9.994;2022-12-18T09:46:10;-3.30;99.90
13585;DHT22;6863;48.402;9.994;2022-12-18T09:48:49;-3.20;99.90
13585;DHT22;6863;48.402;9.994;2022-12-18T09:51:22;-3.10;99.90
13585;DHT22;6863;48.402;9.994;2022-12-18T09:54:00;-3.20;99.90
13585;DHT22;6863;48.402;9.994;2022-12-18T09:56:28;-3.30;99.90
13585;DHT22;6863;48.402;9.994;2022-12-18T09:58:59;-3.20;99.90
13585;DHT22;6863;48.402;9.994;2022-12-18T10:01:25;-3.30;99.90
13585;DHT22;6863;48.402;9.994;2022-12-18T10:03:52;-3.30;99.90
13585;DHT22;6863;48.402;9.994;2022-12-18T10:09:03;-3.80;99.90
13585;DHT22;6863;48.402;9.994;2022-12-18T10:14:34;-3.60;99.90
13585;DHT22;6863;48.402;9.994;2022-12-18T10:20:11;-3.10;99.90
13585;DHT22;6863;48.402;9.994;2022-12-18T10:22:50;-3.40;99.90
13585;DHT22;6863;48.402;9.994;2022-12-18T10:28:16;-3.50;99.90
13585;DHT22;6863;48.402;9.994;2022-12-18T10:30:43;-3.60;99.90
13585;DHT22;6863;48.402;9.994;2022-12-18T10:33:14;-3.50;99.90
13585;DHT22;6863;48.402;9.994;2022-12-18T10:35:41;-3.40;99.90
13585;DHT22;6863;48.402;9.994;2022-12-18T10:40:56;-3.30;99.90
13585;DHT22;6863;48.402;9.994;2022-12-18T10:43:34;-3.10;99.90
13585;DHT22;6863;48.402;9.994;2022-12-18T10:51:25;-3.10;99.90
13585;DHT22;6863;48.402;9.994;2022-12-18T10:56:29;-3.30;99.90
13585;DHT22;6863;48.402;9.994;2022-12-18T10:59:30;-3.40;99.90
13585;DHT22;6863;48.402;9.994;2022-12-18T11:01:56;-3.30;99.90
13585;DHT22;6863;48.402;9.994;2022-12-18T11:04:27;-3.30;99.90
13585;DHT22;6863;48.402;9.994;2022-12-18T11:06:54;-3.30;99.90
13585;DHT22;6863;48.402;9.994;2022-12-18T11:09:34;-3.30;99.90
13585;DHT22;6863;48.402;9.994;2022-12-18T11:12:14;-3.30;99.90
13585;DHT22;6863;48.402;9.994;2022-12-18T11:14:47;-3.30;99.90
13585;DHT22;6863;48.402;9.994;2022-12-18T11:17:28;-3.10;99.90
13585;DHT22;6863;48.402;9.994;2022-12-18T11:19:59;-2.90;99.90
13585;DHT22;6863;48.402;9.994;2022-12-18T11:22:31;-2.90;99.90
13585;DHT22;6863;48.402;9.994;2022-12-18T11:25:17;-2.80;99.90
13585;DHT22;6863;48.402;9.994;2022-12-18T11:31:26;-3.00;99.90
13585;DHT22;6863;48.402;9.994;2022-12-18T11:36:36;-2.90;99.90
13585;DHT22;6863;48.402;9.994;2022-12-18T11:39:20;-2.90;99.90
13585;DHT22;6863;48.402;9.994;2022-12-18T11:42:04;-2.80;99.90
13585;DHT22;6863;48.402;9.994;2022-12-18T11:44:52;-2.90;99.90
13585;DHT22;6863;48.402;9.994;2022-12-18T11:49:49;-2.90;99.90
13585;DHT22;6863;48.402;9.994;2022-12-18T11:52:22;-3.00;99.90
13585;DHT22;6863;48.402;9.994;2022-12-18T11:54:51;-3.10;99.90
13585;DHT22;6863;48.402;9.994;2022-12-18T11:57:27;-2.90;99.90
13585;DHT22;6863;48.402;9.994;2022-12-18T12:00:15;-2.80;99.90
13585;DHT22;6863;48.402;9.994;2022-12-18T12:16:59;-2.40;99.90
13585;DHT22;6863;48.402;9.994;2022-12-18T12:19:49;-2.60;99.90
13585;DHT22;6863;48.402;9.994;2022-12-18T12:24:59;-3.20;99.90
13585;DHT22;6863;48.402;9.994;2022-12-18T12:27:37;-3.10;99.90
13585;DHT22;6863;48.402;9.994;2022-12-18T12:30:48;-3.00;99.90
13585;DHT22;6863;48.402;9.994;2022-12-18T12:39:00;-3.00;99.90
13585;DHT22;6863;48.402;9.994;2022-12-18T12:41:30;-3.00;99.90
13585;DHT22;6863;48.402;9.994;2022-12-18T12:44:27;-2.80;99.90
13585;DHT22;6863;48.402;9.994;2022-12-18T12:46:57;-2.70;99.90
13585;DHT22;6863;48.402;9.994;2022-12-18T12:49:28;-2.70;99.90
13585;DHT22;6863;48.402;9.994;2022-12-18T12:52:47;-2.90;99.90
13585;DHT22;6863;48.402;9.994;2022-12-18T12:54:53;-3.00;99.90
13585;DHT22;6863;48.402;9.994;2022-12-18T12:57:33;-3.00;99.90
13585;DHT22;6863;48.402;9.994;2022-12-18T13:05:42;-3.10;99.90
13585;DHT22;6863;48.402;9.994;2022-12-18T13:08:22;-3.10;99.90
13585;DHT22;6863;48.402;9.994;2022-12-18T13:10:49;-3.00;99.90
13585;DHT22;6863;48.402;9.994;2022-12-18T13:13:56;-3.10;99.90
13585;DHT22;6863;48.402;9.994;2022-12-18T13:16:24;-3.20;99.90
13585;DHT22;6863;48.402;9.994;2022-12-18T13:18:57;-3.30;99.90
13585;DHT22;6863;48.402;9.994;2022-12-18T13:23:52;-3.10;99.90
13585;DHT22;6863;48.402;9.994;2022-12-18T13:36:49;-3.50;99.90
13585;DHT22;6863;48.402;9.994;2022-12-18T13:41:45;-3.60;99.90
13585;DHT22;6863;48.402;9.994;2022-12-18T13:44:37;-3.60;99.90
13585;DHT22;6863;48.402;9.994;2022-12-18T13:49:50;-3.60;99.90
13585;DHT22;6863;48.402;9.994;2022-12-18T13:52:21;-3.50;99.90
13585;DHT22;6863;48.402;9.994;2022-12-18T13:54:57;-3.60;99.90
13585;DHT22;6863;48.402;9.994;2022-12-18T13:57:29;-3.60;99.90
13585;DHT22;6863;48.402;9.994;2022-12-18T13:59:56;-3.80;99.90
13585;DHT22;6863;48.402;9.994;2022-12-18T14:02:27;-3.90;99.90
13585;DHT22;6863;48.402;9.994;2022-12-18T14:04:53;-3.90;99.90
13585;DHT22;6863;48.402;9.994;2022-12-18T14:07:21;-3.80;99.90
13585;DHT22;6863;48.402;9.994;2022-12-18T14:09:55;-3.80;99.90
13585;DHT22;6863;48.402;9.994;2022-12-18T14:12:31;-3.70;99.90
13585;DHT22;6863;48.402;9.994;2022-12-18T14:17:42;-3.80;99.90
13585;DHT22;6863;48.402;9.994;2022-12-18T14:20:14;-3.80;99.90
13585;DHT22;6863;48.402;9.994;2022-12-18T14:22:43;-3.80;99.90
13585;DHT22;6863;48.402;9.994;2022-12-18T14:27:42;-3.80;99.90
13585;DHT22;6863;48.402;9.994;2022-12-18T14:33:27;-3.90;99.90
13585;DHT22;6863;48.402;9.994;2022-12-18T14:36:01;-3.80;99.90
13585;DHT22;6863;48.402;9.994;2022-12-18T14:41:11;-4.00;99.90
13585;DHT22;6863;48.402;9.994;2022-12-18T14:43:39;-4.00;99.90
13585;DHT22;6863;48.402;9.994;2022-12-18T14:46:24;-4.00;99.90
13585;DHT22;6863;48.402;9.994;2022-12-18T14:48:51;-4.00;99.90
13585;DHT22;6863;48.402;9.994;2022-12-18T14:51:20;-4.20;99.90
13585;DHT22;6863;48.402;9.994;2022-12-18T14:53:47;-4.20;99.90
13585;DHT22;6863;48.402;9.994;2022-12-18T14:56:16;-4.20;99.90
13585;DHT22;6863;48.402;9.994;2022-12-18T14:58:48;-4.20;99.90
13585;DHT22;6863;48.402;9.994;2022-12-18T15:01:28;-4.20;99.90
13585;DHT22;6863;48.402;9.994;2022-12-18T15:03:56;-4.30;99.90
13585;DHT22;6863;48.402;9.994;2022-12-18T15:06:42;-4.30;99.90
13585;DHT22;6863;48.402;9.994;2022-12-18T15:09:25;-4.30;99.90
13585;DHT22;6863;48.402;9.994;2022-12-18T15:11:57;-4.40;99.90
13585;DHT22;6863;48.402;9.994;2022-12-18T15:14:40;-4.40;99.90
13585;DHT22;6863;48.402;9.994;2022-12-18T15:17:26;-4.40;99.90
13585;DHT22;6863;48.402;9.994;2022-12-18T15:19:58;-4.40;99.90
13585;DHT22;6863;48.402;9.994;2022-12-18T15:22:31;-4.40;99.90
13585;DHT22;6863;48.402;9.994;2022-12-18T15:24:59;-4.40;99.90
13585;DHT22;6863;48.402;9.994;2022-12-18T15:27:33;-4.60;99.90
13585;DHT22;6863;48.402;9.994;2022-12-18T15:32:36;-4.60;99.90
13585;DHT22;6863;48.402;9.994;2022-12-18T15:37:35;-4.70;99.90
13585;DHT22;6863;48.402;9.994;2022-12-18T15:40:07;-4.70;99.90
13585;DHT22;6863;48.402;9.994;2022-12-18T15:42:33;-4.80;99.90
13585;DHT22;6863;48.402;9.994;2022-12-18T15:45:17;-4.80;99.90
13585;DHT22;6863;48.402;9.994;2022-12-18T15:47:43;-4.80;99.90
13585;DHT22;6863;48.402;9.994;2022-12-18T15:50:09;-4.80;99.90
13585;DHT22;6863;48.402;9.994;2022-12-18T15:52:43;-4.80;99.90
13585;DHT22;6863;48.402;9.994;2022-12-18T15:55:17;-4.90;99.90
13585;DHT22;6863;48.402;9.994;2022-12-18T15:58:02;-4.80;99.90
13585;DHT22;6863;48.402;9.994;2022-12-18T16:00:27;-4.80;99.90
13585;DHT22;6863;48.402;9.994;2022-12-18T16:02:53;-4.80;99.90
13585;DHT22;6863;48.402;9.994;2022-12-18T16:05:19;-4.80;99.90
13585;DHT22;6863;48.402;9.994;2022-12-18T16:07:48;-4.80;99.90
13585;DHT22;6863;48.402;9.994;2022-12-18T16:10:14;-4.90;99.90
13585;DHT22;6863;48.402;9.994;2022-12-18T16:12:41;-4.90;99.90
13585;DHT22;6863;48.402;9.994;2022-12-18T16:15:07;-4.90;99.90
13585;DHT22;6863;48.402;9.994;2022-12-18T16:17:33;-4.90;99.90
13585;DHT22;6863;48.402;9.994;2022-12-18T16:19:59;-4.90;99.90
13585;DHT22;6863;48.402;9.994;2022-12-18T16:22:27;-4.80;99.90
13585;DHT22;6863;48.402;9.994;2022-12-18T16:24:54;-4.80;99.90
13585;DHT22;6863;48.402;9.994;2022-12-18T16:27:20;-4.80;99.90
13585;DHT22;6863;48.402;9.994;2022-12-18T16:29:46;-4.80;99.90
13585;DHT22;6863;48.402;9.994;2022-12-18T16:32:15;-4.80;99.90
13585;DHT22;6863;48.402;9.994;2022-12-18T16:34:41;-4.80;99.90
13585;DHT22;6863;48.402;9.994;2022-12-18T16:37:08;-4.80;99.90
13585;DHT22;6863;48.402;9.994;2022-12-18T16:39:35;-4.90;99.90
13585;DHT22;6863;48.402;9.994;2022-12-18T16:42:03;-4.80;99.90
13585;DHT22;6863;48.402;9.994;2022-12-18T16:44:29;-4.80;99.90
13585;DHT22;6863;48.402;9.994;2022-12-18T16:46:55;-4.80;99.90
13585;DHT22;6863;48.402;9.994;2022-12-18T16:49:27;-4.80;99.90
13585;DHT22;6863;48.402;9.994;2022-12-18T16:51:52;-4.90;99.90
13585;DHT22;6863;48.402;9.994;2022-12-18T16:54:19;-4.90;99.90
13585;DHT22;6863;48.402;9.994;2022-12-18T16:56:45;-4.90;99.90
13585;DHT22;6863;48.402;9.994;2022-12-18T16:59:14;-4.90;99.90
13585;DHT22;6863;48.402;9.994;2022-12-18T17:01:40;-4.90;99.90
13585;DHT22;6863;48.402;9.994;2022-12-18T17:04:06;-4.80;99.90
13585;DHT22;6863;48.402;9.994;2022-12-18T17:06:35;-4.90;99.90
13585;DHT22;6863;48.402;9.994;2022-12-18T17:09:05;-4.90;99.90
13585;DHT22;6863;48.402;9.994;2022-12-18T17:11:33;-4.90;99.90
13585;DHT22;6863;48.402;9.994;2022-12-18T17:13:59;-4.90;99.90
13585;DHT22;6863;48.402;9.994;2022-12-18T17:16:30;-5.00;99.90
13585;DHT22;6863;48.402;9.994;2022-12-18T17:18:55;-4.90;99.90
13585;DHT22;6863;48.402;9.994;2022-12-18T17:21:21;-4.80;99.90
13585;DHT22;6863;48.402;9.994;2022-12-18T17:23:46;-4.90;99.90
13585;DHT22;6863;48.402;9.994;2022-12-18T17:26:12;-4.90;99.90
13585;DHT22;6863;48.402;9.994;2022-12-18T17:28:39;-4.90;99.90
13585;DHT22;6863;48.402;9.994;2022-12-18T17:31:13;-4.90;99.90
13585;DHT22;6863;48.402;9.994;2022-12-18T17:33:39;-5.00;99.90
13585;DHT22;6863;48.402;9.994;2022-12-18T17:36:05;-5.20;99.90
13585;DHT22;6863;48.402;9.994;2022-12-18T17:38:31;-5.20;99.90
13585;DHT22;6863;48.402;9.994;2022-12-18T17:41:01;-5.20;99.90
13585;DHT22;6863;48.402;9.994;2022-12-18T17:43:27;-5.20;99.90
13585;DHT22;6863;48.402;9.994;2022-12-18T17:45:52;-5.20;99.90
13585;DHT22;6863;48.402;9.994;2022-12-18T17:48:18;-5.20;99.90
13585;DHT22;6863;48.402;9.994;2022-12-18T17:50:44;-5.20;99.90
13585;DHT22;6863;48.402;9.994;2022-12-18T17:53:10;-5.20;99.90
13585;DHT22;6863;48.402;9.994;2022-12-18T17:55:35;-5.10;99.90
13585;DHT22;6863;48.402;9.994;2022-12-18T17:58:01;-5.10;99.90
13585;DHT22;6863;48.402;9.994;2022-12-18T18:00:27;-5.10;99.90
13585;DHT22;6863;48.402;9.994;2022-12-18T18:02:53;-5.20;99.90
13585;DHT22;6863;48.402;9.994;2022-12-18T18:05:20;-5.10;99.90